sensor_id;sensor_type;location;lat;lon;timestamp;P1;durP1;ratioP1;P2;durP2;ratioP2
9547;SDS011;4812;51.992;8.648;2023-05-16T00:01:02;15.80;;;10.25;;
9547;SDS011;4812;51.992;8.648;2023-05-16T00:03:50;14.05;;;9.75;;
9547;SDS011;4812;51.992;8.648;2023-05-16T00:06:36;16.15;;;10.27;;
9547;SDS011;4812;51.992;8.648;2023-05-16T00:18:29;13.02;;;9.35;;
9547;SDS011;4812;51.992;8.648;2023-05-16T00:21:16;15.48;;;9.82;;
9547;SDS011;4812;51.992;8.648;2023-05-16T00:24:05;14.75;;;10.40;;
9547;SDS011;4812;51.992;8.648;2023-05-16T00:26:58;14.63;;;10.23;;
9547;SDS011;4812;51.992;8.648;2023-05-16T00:29:51;15.68;;;11.27;;
9547;SDS011;4812;51.992;8.648;2023-05-16T00:32:44;16.75;;;10.25;;
9547;SDS011;4812;51.992;8.648;2023-05-16T00:38:51;18.42;;;10.98;;
9547;SDS011;4812;51.992;8.648;2023-05-16T00:41:43;17.42;;;10.45;;
9547;SDS011;4812;51.992;8.648;2023-05-16T00:47:53;13.63;;;9.85;;
9547;SDS011;4812;51.992;8.648;2023-05-16T00:50:45;15.60;;;9.95;;
9547;SDS011;4812;51.992;8.648;2023-05-16T00:53:38;13.75;;;9.95;;
9547;SDS011;4812;51.992;8.648;2023-05-16T00:56:33;15.18;;;9.35;;
9547;SDS011;4812;51.992;8.648;2023-05-16T00:59:25;14.40;;;9.27;;
9547;SDS011;4812;51.992;8.648;2023-05-16T01:02:19;13.20;;;8.20;;
9547;SDS011;4812;51.992;8.648;2023-05-16T01:05:12;10.27;;;8.20;;
9547;SDS011;4812;51.992;8.648;2023-05-16T01:08:05;12.15;;;7.45;;
9547;SDS011;4812;51.992;8.648;2023-05-16T01:14:33;12.48;;;7.03;;
9547;SDS011;4812;51.992;8.648;2023-05-16T01:17:32;9.13;;;5.60;;
9547;SDS011;4812;51.992;8.648;2023-05-16T01:20:32;7.53;;;5.80;;
9547;SDS011;4812;51.992;8.648;2023-05-16T01:26:45;5.40;;;4.43;;
9547;SDS011;4812;51.992;8.648;2023-05-16T01:29:37;7.30;;;4.80;;
9547;SDS011;4812;51.992;8.648;2023-05-16T01:32:30;9.80;;;4.55;;
9547;SDS011;4812;51.992;8.648;2023-05-16T01:35:22;7.00;;;4.07;;
9547;SDS011;4812;51.992;8.648;2023-05-16T01:41:23;7.97;;;4.07;;
9547;SDS011;4812;51.992;8.648;2023-05-16T01:44:19;6.80;;;4.13;;
9547;SDS011;4812;51.992;8.648;2023-05-16T01:47:15;8.07;;;4.65;;
9547;SDS011;4812;51.992;8.648;2023-05-16T01:50:11;7.72;;;4.28;;
9547;SDS011;4812;51.992;8.648;2023-05-16T01:53:07;5.78;;;3.83;;
9547;SDS011;4812;51.992;8.648;2023-05-16T01:56:02;5.03;;;3.53;;
9547;SDS011;4812;51.992;8.648;2023-05-16T01:58:55;5.47;;;3.28;;
9547;SDS011;4812;51.992;8.648;2023-05-16T02:01:49;8.10;;;4.13;;
9547;SDS011;4812;51.992;8.648;2023-05-16T02:07:47;4.28;;;3.20;;
9547;SDS011;4812;51.992;8.648;2023-05-16T02:13:52;3.35;;;2.90;;
9547;SDS011;4812;51.992;8.648;2023-05-16T02:16:44;8.02;;;3.22;;
9547;SDS011;4812;51.992;8.648;2023-05-16T02:19:39;5.95;;;2.95;;
9547;SDS011;4812;51.992;8.648;2023-05-16T02:22:31;6.60;;;3.70;;
9547;SDS011;4812;51.992;8.648;2023-05-16T02:25:24;4.53;;;3.22;;
9547;SDS011;4812;51.992;8.648;2023-05-16T02:28:18;6.47;;;3.80;;
9547;SDS011;4812;51.992;8.648;2023-05-16T02:31:10;8.55;;;3.40;;
9547;SDS011;4812;51.992;8.648;2023-05-16T02:34:03;5.63;;;2.90;;
9547;SDS011;4812;51.992;8.648;2023-05-16T02:36:59;7.30;;;3.30;;
9547;SDS011;4812;51.992;8.648;2023-05-16T02:39:51;6.38;;;3.05;;
9547;SDS011;4812;51.992;8.648;2023-05-16T02:42:43;7.03;;;3.53;;
9547;SDS011;4812;51.992;8.648;2023-05-16T02:45:36;5.47;;;3.42;;
9547;SDS011;4812;51.992;8.648;2023-05-16T02:48:50;4.55;;;3.10;;
9547;SDS011;4812;51.992;8.648;2023-05-16T02:51:42;7.35;;;3.45;;
9547;SDS011;4812;51.992;8.648;2023-05-16T02:54:43;6.88;;;4.00;;
9547;SDS011;4812;51.992;8.648;2023-05-16T02:57:50;7.70;;;3.58;;
9547;SDS011;4812;51.992;8.648;2023-05-16T03:00:43;6.72;;;3.08;;
9547;SDS011;4812;51.992;8.648;2023-05-16T03:03:36;7.45;;;3.17;;
9547;SDS011;4812;51.992;8.648;2023-05-16T03:06:28;7.60;;;3.22;;
9547;SDS011;4812;51.992;8.648;2023-05-16T03:09:23;9.47;;;2.90;;
9547;SDS011;4812;51.992;8.648;2023-05-16T03:12:18;6.93;;;3.50;;
9547;SDS011;4812;51.992;8.648;2023-05-16T03:15:10;7.60;;;2.90;;
9547;SDS011;4812;51.992;8.648;2023-05-16T03:21:10;11.98;;;2.80;;
9547;SDS011;4812;51.992;8.648;2023-05-16T03:24:04;7.85;;;3.17;;
9547;SDS011;4812;51.992;8.648;2023-05-16T03:26:56;8.30;;;2.58;;
9547;SDS011;4812;51.992;8.648;2023-05-16T03:29:51;7.15;;;2.50;;
9547;SDS011;4812;51.992;8.648;2023-05-16T03:32:43;15.48;;;2.85;;
9547;SDS011;4812;51.992;8.648;2023-05-16T03:38:56;6.93;;;2.60;;
9547;SDS011;4812;51.992;8.648;2023-05-16T03:45:07;5.47;;;2.40;;
9547;SDS011;4812;51.992;8.648;2023-05-16T03:48:00;9.30;;;2.83;;
9547;SDS011;4812;51.992;8.648;2023-05-16T03:50:53;10.23;;;2.30;;
9547;SDS011;4812;51.992;8.648;2023-05-16T03:57:02;7.03;;;1.70;;
9547;SDS011;4812;51.992;8.648;2023-05-16T04:03:08;14.45;;;2.60;;
9547;SDS011;4812;51.992;8.648;2023-05-16T04:09:18;4.40;;;2.17;;
9547;SDS011;4812;51.992;8.648;2023-05-16T04:12:10;7.93;;;2.05;;
9547;SDS011;4812;51.992;8.648;2023-05-16T04:15:23;10.85;;;2.80;;
9547;SDS011;4812;51.992;8.648;2023-05-16T04:18:17;11.52;;;2.42;;
9547;SDS011;4812;51.992;8.648;2023-05-16T04:21:15;13.75;;;3.15;;
9547;SDS011;4812;51.992;8.648;2023-05-16T04:24:08;11.57;;;2.75;;
9547;SDS011;4812;51.992;8.648;2023-05-16T04:27:01;9.65;;;2.63;;
9547;SDS011;4812;51.992;8.648;2023-05-16T04:29:55;6.55;;;2.60;;
9547;SDS011;4812;51.992;8.648;2023-05-16T04:35:53;7.65;;;2.50;;
9547;SDS011;4812;51.992;8.648;2023-05-16T04:38:48;11.02;;;3.92;;
9547;SDS011;4812;51.992;8.648;2023-05-16T04:41:41;14.50;;;2.92;;
9547;SDS011;4812;51.992;8.648;2023-05-16T04:47:41;14.75;;;2.42;;
9547;SDS011;4812;51.992;8.648;2023-05-16T04:53:42;11.60;;;2.63;;
9547;SDS011;4812;51.992;8.648;2023-05-16T04:56:35;10.52;;;1.90;;
9547;SDS011;4812;51.992;8.648;2023-05-16T05:02:46;9.48;;;1.92;;
9547;SDS011;4812;51.992;8.648;2023-05-16T05:08:47;17.02;;;2.85;;
9547;SDS011;4812;51.992;8.648;2023-05-16T05:11:40;10.15;;;2.10;;
9547;SDS011;4812;51.992;8.648;2023-05-16T05:17:43;16.77;;;2.38;;
9547;SDS011;4812;51.992;8.648;2023-05-16T05:23:54;13.45;;;2.50;;
9547;SDS011;4812;51.992;8.648;2023-05-16T05:29:59;15.95;;;2.70;;
9547;SDS011;4812;51.992;8.648;2023-05-16T05:32:51;14.00;;;2.63;;
9547;SDS011;4812;51.992;8.648;2023-05-16T05:36:04;14.52;;;2.80;;
9547;SDS011;4812;51.992;8.648;2023-05-16T05:38:58;12.45;;;2.58;;
9547;SDS011;4812;51.992;8.648;2023-05-16T05:41:56;13.88;;;2.10;;
9547;SDS011;4812;51.992;8.648;2023-05-16T05:44:49;17.25;;;2.50;;
9547;SDS011;4812;51.992;8.648;2023-05-16T05:47:42;9.65;;;2.47;;
9547;SDS011;4812;51.992;8.648;2023-05-16T05:50:35;11.90;;;2.60;;
9547;SDS011;4812;51.992;8.648;2023-05-16T05:53:28;12.65;;;3.80;;
9547;SDS011;4812;51.992;8.648;2023-05-16T05:56:26;12.23;;;3.72;;
9547;SDS011;4812;51.992;8.648;2023-05-16T05:59:19;12.95;;;3.30;;
9547;SDS011;4812;51.992;8.648;2023-05-16T06:05:33;10.88;;;3.10;;
9547;SDS011;4812;51.992;8.648;2023-05-16T06:08:25;11.27;;;2.15;;
9547;SDS011;4812;51.992;8.648;2023-05-16T06:11:18;15.85;;;3.95;;
9547;SDS011;4812;51.992;8.648;2023-05-16T06:14:13;9.40;;;1.85;;
9547;SDS011;4812;51.992;8.648;2023-05-16T06:17:06;12.63;;;3.30;;
9547;SDS011;4812;51.992;8.648;2023-05-16T06:19:59;11.75;;;2.72;;
9547;SDS011;4812;51.992;8.648;2023-05-16T06:22:52;16.33;;;2.33;;
9547;SDS011;4812;51.992;8.648;2023-05-16T06:25:49;13.38;;;1.90;;
9547;SDS011;4812;51.992;8.648;2023-05-16T06:28:42;11.07;;;2.45;;
9547;SDS011;4812;51.992;8.648;2023-05-16T06:31:37;9.77;;;2.63;;
9547;SDS011;4812;51.992;8.648;2023-05-16T06:37:38;18.58;;;2.83;;
9547;SDS011;4812;51.992;8.648;2023-05-16T06:40:33;14.38;;;2.95;;
9547;SDS011;4812;51.992;8.648;2023-05-16T06:43:26;9.38;;;3.03;;
9547;SDS011;4812;51.992;8.648;2023-05-16T06:46:20;16.20;;;2.83;;
9547;SDS011;4812;51.992;8.648;2023-05-16T06:49:15;10.32;;;1.58;;
9547;SDS011;4812;51.992;8.648;2023-05-16T06:52:07;11.48;;;2.63;;
9547;SDS011;4812;51.992;8.648;2023-05-16T06:55:02;12.65;;;2.97;;
9547;SDS011;4812;51.992;8.648;2023-05-16T06:57:55;20.13;;;2.58;;
9547;SDS011;4812;51.992;8.648;2023-05-16T07:00:48;20.77;;;3.42;;
9547;SDS011;4812;51.992;8.648;2023-05-16T07:03:41;8.43;;;1.70;;
9547;SDS011;4812;51.992;8.648;2023-05-16T07:06:36;16.52;;;3.20;;
9547;SDS011;4812;51.992;8.648;2023-05-16T07:09:28;9.52;;;2.17;;
9547;SDS011;4812;51.992;8.648;2023-05-16T07:12:21;9.48;;;2.10;;
9547;SDS011;4812;51.992;8.648;2023-05-16T07:15:13;11.30;;;2.10;;
9547;SDS011;4812;51.992;8.648;2023-05-16T07:18:06;15.38;;;2.35;;
9547;SDS011;4812;51.992;8.648;2023-05-16T07:20:59;7.10;;;1.98;;
9547;SDS011;4812;51.992;8.648;2023-05-16T07:23:54;11.63;;;2.42;;
9547;SDS011;4812;51.992;8.648;2023-05-16T07:26:47;9.32;;;3.05;;
9547;SDS011;4812;51.992;8.648;2023-05-16T07:33:08;5.72;;;2.22;;
9547;SDS011;4812;51.992;8.648;2023-05-16T07:39:32;9.35;;;2.10;;
9547;SDS011;4812;51.992;8.648;2023-05-16T07:45:55;10.68;;;2.63;;
9547;SDS011;4812;51.992;8.648;2023-05-16T07:48:48;14.98;;;2.05;;
9547;SDS011;4812;51.992;8.648;2023-05-16T07:51:41;11.57;;;1.60;;
9547;SDS011;4812;51.992;8.648;2023-05-16T07:54:35;8.35;;;1.52;;
9547;SDS011;4812;51.992;8.648;2023-05-16T07:57:27;14.13;;;2.45;;
9547;SDS011;4812;51.992;8.648;2023-05-16T08:00:21;8.38;;;1.80;;
9547;SDS011;4812;51.992;8.648;2023-05-16T08:03:14;13.85;;;1.70;;
9547;SDS011;4812;51.992;8.648;2023-05-16T08:09:28;6.30;;;1.08;;
9547;SDS011;4812;51.992;8.648;2023-05-16T08:16:09;8.50;;;1.75;;
9547;SDS011;4812;51.992;8.648;2023-05-16T08:19:01;12.63;;;1.95;;
9547;SDS011;4812;51.992;8.648;2023-05-16T08:21:55;7.70;;;1.63;;
9547;SDS011;4812;51.992;8.648;2023-05-16T08:24:47;5.72;;;1.65;;
9547;SDS011;4812;51.992;8.648;2023-05-16T08:27:40;10.10;;;2.67;;
9547;SDS011;4812;51.992;8.648;2023-05-16T08:30:32;7.32;;;2.10;;
9547;SDS011;4812;51.992;8.648;2023-05-16T08:33:27;9.05;;;1.85;;
9547;SDS011;4812;51.992;8.648;2023-05-16T08:40:06;7.15;;;1.38;;
9547;SDS011;4812;51.992;8.648;2023-05-16T08:46:21;7.90;;;1.88;;
9547;SDS011;4812;51.992;8.648;2023-05-16T08:52:23;6.63;;;1.55;;
9547;SDS011;4812;51.992;8.648;2023-05-16T08:58:39;9.40;;;2.00;;
9547;SDS011;4812;51.992;8.648;2023-05-16T09:04:37;5.40;;;1.42;;
9547;SDS011;4812;51.992;8.648;2023-05-16T09:10:48;5.80;;;1.65;;
9547;SDS011;4812;51.992;8.648;2023-05-16T09:13:41;10.60;;;1.88;;
9547;SDS011;4812;51.992;8.648;2023-05-16T09:16:35;12.20;;;1.20;;
9547;SDS011;4812;51.992;8.648;2023-05-16T09:19:31;7.07;;;1.67;;
9547;SDS011;4812;51.992;8.648;2023-05-16T09:22:25;5.07;;;1.65;;
9547;SDS011;4812;51.992;8.648;2023-05-16T09:28:32;5.25;;;1.30;;
9547;SDS011;4812;51.992;8.648;2023-05-16T09:40:51;9.10;;;1.60;;
9547;SDS011;4812;51.992;8.648;2023-05-16T09:43:45;6.88;;;1.70;;
9547;SDS011;4812;51.992;8.648;2023-05-16T09:46:37;8.43;;;2.15;;
9547;SDS011;4812;51.992;8.648;2023-05-16T09:49:30;5.25;;;2.20;;
9547;SDS011;4812;51.992;8.648;2023-05-16T09:52:25;8.23;;;1.50;;
9547;SDS011;4812;51.992;8.648;2023-05-16T09:55:18;6.93;;;1.60;;
9547;SDS011;4812;51.992;8.648;2023-05-16T09:58:11;8.63;;;1.20;;
9547;SDS011;4812;51.992;8.648;2023-05-16T10:01:10;5.63;;;1.00;;
9547;SDS011;4812;51.992;8.648;2023-05-16T10:04:04;6.43;;;1.15;;
9547;SDS011;4812;51.992;8.648;2023-05-16T10:06:56;7.72;;;1.30;;
9547;SDS011;4812;51.992;8.648;2023-05-16T10:09:52;6.63;;;1.10;;
9547;SDS011;4812;51.992;8.648;2023-05-16T10:12:45;5.47;;;1.85;;
9547;SDS011;4812;51.992;8.648;2023-05-16T10:15:38;5.05;;;1.20;;
9547;SDS011;4812;51.992;8.648;2023-05-16T10:21:55;6.57;;;0.88;;
9547;SDS011;4812;51.992;8.648;2023-05-16T10:24:51;4.00;;;1.30;;
9547;SDS011;4812;51.992;8.648;2023-05-16T10:27:49;6.30;;;1.13;;
9547;SDS011;4812;51.992;8.648;2023-05-16T10:30:43;4.95;;;1.27;;
9547;SDS011;4812;51.992;8.648;2023-05-16T10:33:30;6.43;;;1.15;;
9547;SDS011;4812;51.992;8.648;2023-05-16T10:36:16;5.50;;;0.85;;
9547;SDS011;4812;51.992;8.648;2023-05-16T10:39:04;5.38;;;1.55;;
9547;SDS011;4812;51.992;8.648;2023-05-16T10:41:50;7.95;;;1.08;;
9547;SDS011;4812;51.992;8.648;2023-05-16T10:44:37;7.47;;;1.60;;
9547;SDS011;4812;51.992;8.648;2023-05-16T10:47:25;7.05;;;1.98;;
9547;SDS011;4812;51.992;8.648;2023-05-16T10:50:11;8.73;;;1.00;;
9547;SDS011;4812;51.992;8.648;2023-05-16T10:53:09;2.90;;;1.00;;
9547;SDS011;4812;51.992;8.648;2023-05-16T10:56:05;3.75;;;1.10;;
9547;SDS011;4812;51.992;8.648;2023-05-16T10:58:53;6.20;;;1.33;;
9547;SDS011;4812;51.992;8.648;2023-05-16T11:01:40;3.08;;;1.30;;
9547;SDS011;4812;51.992;8.648;2023-05-16T11:07:31;7.22;;;1.50;;
9547;SDS011;4812;51.992;8.648;2023-05-16T11:10:24;3.93;;;1.53;;
9547;SDS011;4812;51.992;8.648;2023-05-16T11:13:19;5.55;;;1.05;;
9547;SDS011;4812;51.992;8.648;2023-05-16T11:16:25;3.92;;;1.33;;
9547;SDS011;4812;51.992;8.648;2023-05-16T11:19:29;4.00;;;1.15;;
9547;SDS011;4812;51.992;8.648;2023-05-16T11:22:23;5.47;;;1.65;;
9547;SDS011;4812;51.992;8.648;2023-05-16T11:25:16;4.22;;;1.60;;
9547;SDS011;4812;51.992;8.648;2023-05-16T11:28:31;12.23;;;1.87;;
9547;SDS011;4812;51.992;8.648;2023-05-16T11:31:23;8.45;;;1.88;;
9547;SDS011;4812;51.992;8.648;2023-05-16T11:34:16;6.20;;;1.35;;
9547;SDS011;4812;51.992;8.648;2023-05-16T11:40:34;6.05;;;2.03;;
9547;SDS011;4812;51.992;8.648;2023-05-16T11:46:39;4.50;;;1.42;;
9547;SDS011;4812;51.992;8.648;2023-05-16T11:52:48;7.05;;;2.22;;
9547;SDS011;4812;51.992;8.648;2023-05-16T11:58:56;10.95;;;2.05;;
9547;SDS011;4812;51.992;8.648;2023-05-16T12:01:51;6.18;;;1.38;;
9547;SDS011;4812;51.992;8.648;2023-05-16T12:04:45;9.13;;;1.55;;
9547;SDS011;4812;51.992;8.648;2023-05-16T12:07:39;5.50;;;1.38;;
9547;SDS011;4812;51.992;8.648;2023-05-16T12:10:32;7.30;;;1.50;;
9547;SDS011;4812;51.992;8.648;2023-05-16T12:13:26;3.92;;;1.50;;
9547;SDS011;4812;51.992;8.648;2023-05-16T12:16:19;7.93;;;1.58;;
9547;SDS011;4812;51.992;8.648;2023-05-16T12:19:13;7.82;;;1.38;;
9547;SDS011;4812;51.992;8.648;2023-05-16T12:22:14;5.80;;;1.65;;
9547;SDS011;4812;51.992;8.648;2023-05-16T12:25:19;7.15;;;1.55;;
9547;SDS011;4812;51.992;8.648;2023-05-16T12:28:13;3.17;;;1.00;;
9547;SDS011;4812;51.992;8.648;2023-05-16T12:31:10;5.38;;;1.48;;
9547;SDS011;4812;51.992;8.648;2023-05-16T12:34:23;8.15;;;1.48;;
9547;SDS011;4812;51.992;8.648;2023-05-16T12:37:19;6.38;;;1.88;;
9547;SDS011;4812;51.992;8.648;2023-05-16T12:40:12;3.30;;;1.15;;
9547;SDS011;4812;51.992;8.648;2023-05-16T12:43:11;3.67;;;1.23;;
9547;SDS011;4812;51.992;8.648;2023-05-16T12:46:08;5.38;;;1.42;;
9547;SDS011;4812;51.992;8.648;2023-05-16T12:49:01;5.35;;;1.10;;
9547;SDS011;4812;51.992;8.648;2023-05-16T12:51:59;4.78;;;1.23;;
9547;SDS011;4812;51.992;8.648;2023-05-16T12:54:56;5.72;;;1.33;;
9547;SDS011;4812;51.992;8.648;2023-05-16T13:01:01;7.45;;;1.05;;
9547;SDS011;4812;51.992;8.648;2023-05-16T13:03:53;4.40;;;1.08;;
9547;SDS011;4812;51.992;8.648;2023-05-16T13:06:47;4.40;;;1.27;;
9547;SDS011;4812;51.992;8.648;2023-05-16T13:09:47;5.22;;;1.10;;
9547;SDS011;4812;51.992;8.648;2023-05-16T13:12:40;6.07;;;1.48;;
9547;SDS011;4812;51.992;8.648;2023-05-16T13:15:32;3.10;;;1.13;;
9547;SDS011;4812;51.992;8.648;2023-05-16T13:18:25;5.50;;;1.30;;
9547;SDS011;4812;51.992;8.648;2023-05-16T13:21:18;5.35;;;0.93;;
9547;SDS011;4812;51.992;8.648;2023-05-16T13:24:12;4.22;;;1.08;;
9547;SDS011;4812;51.992;8.648;2023-05-16T13:27:07;6.70;;;1.67;;
9547;SDS011;4812;51.992;8.648;2023-05-16T13:30:05;7.07;;;1.25;;
9547;SDS011;4812;51.992;8.648;2023-05-16T13:32:59;9.35;;;1.05;;
9547;SDS011;4812;51.992;8.648;2023-05-16T13:35:51;3.20;;;0.90;;
9547;SDS011;4812;51.992;8.648;2023-05-16T13:38:45;3.78;;;0.95;;
9547;SDS011;4812;51.992;8.648;2023-05-16T13:41:38;10.15;;;1.65;;
9547;SDS011;4812;51.992;8.648;2023-05-16T13:44:34;4.63;;;1.65;;
9547;SDS011;4812;51.992;8.648;2023-05-16T13:47:26;4.45;;;1.23;;
9547;SDS011;4812;51.992;8.648;2023-05-16T13:50:19;7.63;;;1.13;;
9547;SDS011;4812;51.992;8.648;2023-05-16T13:53:12;3.60;;;0.88;;
9547;SDS011;4812;51.992;8.648;2023-05-16T13:56:05;8.50;;;0.95;;
9547;SDS011;4812;51.992;8.648;2023-05-16T13:58:58;3.78;;;1.30;;
9547;SDS011;4812;51.992;8.648;2023-05-16T14:01:59;3.65;;;0.90;;
9547;SDS011;4812;51.992;8.648;2023-05-16T14:04:51;6.00;;;1.40;;
9547;SDS011;4812;51.992;8.648;2023-05-16T14:07:44;3.95;;;1.30;;
9547;SDS011;4812;51.992;8.648;2023-05-16T14:10:38;4.50;;;0.95;;
9547;SDS011;4812;51.992;8.648;2023-05-16T14:13:30;2.70;;;0.85;;
9547;SDS011;4812;51.992;8.648;2023-05-16T14:16:23;4.30;;;1.40;;
9547;SDS011;4812;51.992;8.648;2023-05-16T14:22:30;5.85;;;1.15;;
9547;SDS011;4812;51.992;8.648;2023-05-16T14:25:23;5.97;;;1.55;;
9547;SDS011;4812;51.992;8.648;2023-05-16T14:28:15;3.53;;;1.05;;
9547;SDS011;4812;51.992;8.648;2023-05-16T14:31:08;5.53;;;1.63;;
9547;SDS011;4812;51.992;8.648;2023-05-16T14:34:01;3.75;;;1.20;;
9547;SDS011;4812;51.992;8.648;2023-05-16T14:36:54;4.07;;;1.15;;
9547;SDS011;4812;51.992;8.648;2023-05-16T14:39:49;7.72;;;1.90;;
9547;SDS011;4812;51.992;8.648;2023-05-16T14:42:42;3.17;;;1.20;;
9547;SDS011;4812;51.992;8.648;2023-05-16T14:45:35;7.20;;;1.00;;
9547;SDS011;4812;51.992;8.648;2023-05-16T14:48:29;8.10;;;1.83;;
9547;SDS011;4812;51.992;8.648;2023-05-16T14:51:23;4.60;;;1.23;;
9547;SDS011;4812;51.992;8.648;2023-05-16T14:54:17;7.45;;;1.35;;
9547;SDS011;4812;51.992;8.648;2023-05-16T15:00:51;5.97;;;1.05;;
9547;SDS011;4812;51.992;8.648;2023-05-16T15:07:02;4.15;;;1.40;;
9547;SDS011;4812;51.992;8.648;2023-05-16T15:13:02;4.00;;;1.55;;
9547;SDS011;4812;51.992;8.648;2023-05-16T15:19:17;10.57;;;1.23;;
9547;SDS011;4812;51.992;8.648;2023-05-16T15:25:14;4.05;;;1.10;;
9547;SDS011;4812;51.992;8.648;2023-05-16T15:28:08;6.95;;;1.00;;
9547;SDS011;4812;51.992;8.648;2023-05-16T15:31:01;9.40;;;1.35;;
9547;SDS011;4812;51.992;8.648;2023-05-16T15:33:54;3.80;;;0.95;;
9547;SDS011;4812;51.992;8.648;2023-05-16T15:36:49;2.72;;;1.00;;
9547;SDS011;4812;51.992;8.648;2023-05-16T15:39:42;2.38;;;1.00;;
9547;SDS011;4812;51.992;8.648;2023-05-16T15:42:35;7.82;;;1.42;;
9547;SDS011;4812;51.992;8.648;2023-05-16T15:48:33;6.78;;;2.00;;
9547;SDS011;4812;51.992;8.648;2023-05-16T15:51:26;5.88;;;1.23;;
9547;SDS011;4812;51.992;8.648;2023-05-16T15:54:20;4.50;;;1.40;;
9547;SDS011;4812;51.992;8.648;2023-05-16T15:57:12;4.15;;;1.30;;
9547;SDS011;4812;51.992;8.648;2023-05-16T16:00:05;6.97;;;1.55;;
9547;SDS011;4812;51.992;8.648;2023-05-16T16:03:01;7.13;;;1.63;;
9547;SDS011;4812;51.992;8.648;2023-05-16T16:09:15;3.85;;;1.23;;
9547;SDS011;4812;51.992;8.648;2023-05-16T16:15:17;3.95;;;1.17;;
9547;SDS011;4812;51.992;8.648;2023-05-16T16:18:10;2.85;;;1.20;;
9547;SDS011;4812;51.992;8.648;2023-05-16T16:21:03;6.00;;;1.70;;
9547;SDS011;4812;51.992;8.648;2023-05-16T16:23:57;5.65;;;1.88;;
9547;SDS011;4812;51.992;8.648;2023-05-16T16:26:50;5.72;;;1.25;;
9547;SDS011;4812;51.992;8.648;2023-05-16T16:29:44;4.95;;;1.40;;
9547;SDS011;4812;51.992;8.648;2023-05-16T16:32:38;5.00;;;1.70;;
9547;SDS011;4812;51.992;8.648;2023-05-16T16:35:31;7.00;;;1.75;;
9547;SDS011;4812;51.992;8.648;2023-05-16T16:38:24;4.38;;;1.23;;
9547;SDS011;4812;51.992;8.648;2023-05-16T16:41:17;6.82;;;1.17;;
9547;SDS011;4812;51.992;8.648;2023-05-16T16:44:11;4.80;;;1.50;;
9547;SDS011;4812;51.992;8.648;2023-05-16T16:47:04;4.15;;;1.65;;
9547;SDS011;4812;51.992;8.648;2023-05-16T16:49:58;4.88;;;1.17;;
9547;SDS011;4812;51.992;8.648;2023-05-16T16:52:51;2.92;;;1.02;;
9547;SDS011;4812;51.992;8.648;2023-05-16T16:55:44;5.95;;;1.13;;
9547;SDS011;4812;51.992;8.648;2023-05-16T16:58:37;5.95;;;1.60;;
9547;SDS011;4812;51.992;8.648;2023-05-16T17:04:47;3.95;;;1.67;;
9547;SDS011;4812;51.992;8.648;2023-05-16T17:07:41;5.40;;;1.48;;
9547;SDS011;4812;51.992;8.648;2023-05-16T17:13:55;9.60;;;2.55;;
9547;SDS011;4812;51.992;8.648;2023-05-16T17:20:06;7.65;;;2.58;;
9547;SDS011;4812;51.992;8.648;2023-05-16T17:23:02;5.28;;;1.90;;
9547;SDS011;4812;51.992;8.648;2023-05-16T17:25:54;8.07;;;2.65;;
9547;SDS011;4812;51.992;8.648;2023-05-16T17:28:48;7.72;;;1.60;;
9547;SDS011;4812;51.992;8.648;2023-05-16T17:31:40;7.25;;;2.00;;
9547;SDS011;4812;51.992;8.648;2023-05-16T17:34:33;4.68;;;1.83;;
9547;SDS011;4812;51.992;8.648;2023-05-16T17:37:26;3.95;;;1.48;;
9547;SDS011;4812;51.992;8.648;2023-05-16T17:40:21;6.45;;;2.15;;
9547;SDS011;4812;51.992;8.648;2023-05-16T17:43:14;6.45;;;2.15;;
9547;SDS011;4812;51.992;8.648;2023-05-16T17:46:07;6.05;;;1.92;;
9547;SDS011;4812;51.992;8.648;2023-05-16T17:52:18;7.05;;;2.53;;
9547;SDS011;4812;51.992;8.648;2023-05-16T17:58:19;8.00;;;2.88;;
9547;SDS011;4812;51.992;8.648;2023-05-16T18:01:12;3.47;;;1.77;;
9547;SDS011;4812;51.992;8.648;2023-05-16T18:04:06;8.95;;;3.03;;
9547;SDS011;4812;51.992;8.648;2023-05-16T18:06:59;6.80;;;3.55;;
9547;SDS011;4812;51.992;8.648;2023-05-16T18:09:53;8.40;;;3.00;;
9547;SDS011;4812;51.992;8.648;2023-05-16T18:12:45;7.60;;;3.20;;
9547;SDS011;4812;51.992;8.648;2023-05-16T18:15:40;4.20;;;2.20;;
9547;SDS011;4812;51.992;8.648;2023-05-16T18:18:32;6.13;;;2.67;;
9547;SDS011;4812;51.992;8.648;2023-05-16T18:21:28;12.10;;;3.30;;
9547;SDS011;4812;51.992;8.648;2023-05-16T18:24:20;9.00;;;3.13;;
9547;SDS011;4812;51.992;8.648;2023-05-16T18:27:13;6.55;;;2.65;;
9547;SDS011;4812;51.992;8.648;2023-05-16T18:30:07;7.95;;;2.75;;
9547;SDS011;4812;51.992;8.648;2023-05-16T18:33:03;10.63;;;2.70;;
9547;SDS011;4812;51.992;8.648;2023-05-16T18:35:56;6.03;;;2.53;;
9547;SDS011;4812;51.992;8.648;2023-05-16T18:38:50;8.05;;;3.10;;
9547;SDS011;4812;51.992;8.648;2023-05-16T18:44:56;6.38;;;2.80;;
9547;SDS011;4812;51.992;8.648;2023-05-16T18:51:02;6.57;;;2.30;;
9547;SDS011;4812;51.992;8.648;2023-05-16T18:53:55;6.93;;;3.08;;
9547;SDS011;4812;51.992;8.648;2023-05-16T18:57:08;9.80;;;2.13;;
9547;SDS011;4812;51.992;8.648;2023-05-16T19:00:02;5.78;;;2.75;;
9547;SDS011;4812;51.992;8.648;2023-05-16T19:02:55;4.63;;;2.33;;
9547;SDS011;4812;51.992;8.648;2023-05-16T19:05:48;7.30;;;2.80;;
9547;SDS011;4812;51.992;8.648;2023-05-16T19:08:43;8.85;;;3.22;;
9547;SDS011;4812;51.992;8.648;2023-05-16T19:15:16;5.93;;;2.88;;
9547;SDS011;4812;51.992;8.648;2023-05-16T19:21:39;5.90;;;2.45;;
9547;SDS011;4812;51.992;8.648;2023-05-16T19:24:34;5.38;;;2.58;;
9547;SDS011;4812;51.992;8.648;2023-05-16T19:27:26;4.82;;;1.77;;
9547;SDS011;4812;51.992;8.648;2023-05-16T19:30:20;9.20;;;2.17;;
9547;SDS011;4812;51.992;8.648;2023-05-16T19:33:14;5.93;;;2.20;;
9547;SDS011;4812;51.992;8.648;2023-05-16T19:36:07;8.25;;;2.60;;
9547;SDS011;4812;51.992;8.648;2023-05-16T19:38:59;3.72;;;2.53;;
9547;SDS011;4812;51.992;8.648;2023-05-16T19:41:54;5.38;;;2.95;;
9547;SDS011;4812;51.992;8.648;2023-05-16T19:44:47;8.97;;;2.73;;
9547;SDS011;4812;51.992;8.648;2023-05-16T19:47:41;7.03;;;2.30;;
9547;SDS011;4812;51.992;8.648;2023-05-16T19:50:35;3.58;;;2.15;;
9547;SDS011;4812;51.992;8.648;2023-05-16T19:53:28;2.78;;;1.73;;
9547;SDS011;4812;51.992;8.648;2023-05-16T19:56:20;6.00;;;2.22;;
9547;SDS011;4812;51.992;8.648;2023-05-16T19:59:15;5.57;;;2.00;;
9547;SDS011;4812;51.992;8.648;2023-05-16T20:02:08;4.57;;;1.95;;
9547;SDS011;4812;51.992;8.648;2023-05-16T20:05:00;12.48;;;2.30;;
9547;SDS011;4812;51.992;8.648;2023-05-16T20:07:55;7.55;;;2.50;;
9547;SDS011;4812;51.992;8.648;2023-05-16T20:10:47;5.93;;;2.03;;
9547;SDS011;4812;51.992;8.648;2023-05-16T20:13:40;5.60;;;2.22;;
9547;SDS011;4812;51.992;8.648;2023-05-16T20:20:04;3.03;;;1.90;;
9547;SDS011;4812;51.992;8.648;2023-05-16T20:26:23;5.40;;;1.90;;
9547;SDS011;4812;51.992;8.648;2023-05-16T20:32:24;3.80;;;1.83;;
9547;SDS011;4812;51.992;8.648;2023-05-16T20:39:04;7.43;;;1.77;;
9547;SDS011;4812;51.992;8.648;2023-05-16T20:41:59;6.38;;;1.88;;
9547;SDS011;4812;51.992;8.648;2023-05-16T20:44:52;4.65;;;1.83;;
9547;SDS011;4812;51.992;8.648;2023-05-16T20:47:45;3.47;;;1.77;;
9547;SDS011;4812;51.992;8.648;2023-05-16T20:50:38;3.50;;;1.60;;
9547;SDS011;4812;51.992;8.648;2023-05-16T20:53:32;7.20;;;2.67;;
9547;SDS011;4812;51.992;8.648;2023-05-16T20:59:56;4.22;;;2.00;;
9547;SDS011;4812;51.992;8.648;2023-05-16T21:06:09;3.17;;;2.17;;
9547;SDS011;4812;51.992;8.648;2023-05-16T21:09:03;4.78;;;1.77;;
9547;SDS011;4812;51.992;8.648;2023-05-16T21:15:16;9.25;;;2.25;;
9547;SDS011;4812;51.992;8.648;2023-05-16T21:21:33;9.05;;;1.83;;
9547;SDS011;4812;51.992;8.648;2023-05-16T21:27:51;9.93;;;2.20;;
9547;SDS011;4812;51.992;8.648;2023-05-16T21:33:54;3.67;;;1.95;;
9547;SDS011;4812;51.992;8.648;2023-05-16T21:39:49;5.22;;;2.25;;
9547;SDS011;4812;51.992;8.648;2023-05-16T21:45:54;7.10;;;2.13;;
9547;SDS011;4812;51.992;8.648;2023-05-16T21:48:46;7.05;;;2.72;;
9547;SDS011;4812;51.992;8.648;2023-05-16T21:51:45;5.88;;;2.30;;
9547;SDS011;4812;51.992;8.648;2023-05-16T21:54:38;5.10;;;1.85;;
9547;SDS011;4812;51.992;8.648;2023-05-16T21:57:30;9.65;;;2.20;;
9547;SDS011;4812;51.992;8.648;2023-05-16T22:00:24;4.57;;;1.80;;
9547;SDS011;4812;51.992;8.648;2023-05-16T22:03:16;8.48;;;1.85;;
9547;SDS011;4812;51.992;8.648;2023-05-16T22:06:11;4.97;;;1.40;;
9547;SDS011;4812;51.992;8.648;2023-05-16T22:09:06;5.97;;;1.70;;
9547;SDS011;4812;51.992;8.648;2023-05-16T22:11:59;5.40;;;1.75;;